AOCHA weather

Altiporto Chamois
Chamois (AO), Valle d'Aosta, Italy

Public forecast

Using degrees Celsius for public forecast. Weather courtesy of forecast.io.

METAR (pilot weather report)

Closest report is Aosta Airport, 11.9 nm (22.1 km) WSW. Retrieved 2019/07/23 18:20 UTC (39 minutes ago):

LIMW 231820Z AUTO 10014KT 070V130 9999 NCD 30/19 Q1018

TAF (pilot weather forecast)

Closest forecast is Turin Airport, 38.0 nm (70.4 km) S. Retrieved 2019/07/23 18:21 UTC (38 minutes ago):

TAF LIMC 231700Z 2318/2424 VRB05KT CAVOK= TAF LIMF 231700Z 2318/2418 VRB05KT CAVOK